Time;durP1;ratioP1;P1;durP2;ratioP2;P2;SDS_P1;SDS_P2;PMS_P1;PMS_P2;Temp;Humidity;BMP_temperature;BMP_pressure;BME280_temperature;BME280_humidity;BME280_pressure;Samples;Min_cycle;Max_cycle;Signal;HPM_P1;HPM_P2
2022/07/08 00:02:24;;;;;;;10.47;7.80;;;;;;;;;;4995296;28;20227;-67
2022/07/08 00:04:51;;;;;;;10.80;7.80;;;;;;;;;;4995803;28;20368;-67
2022/07/08 00:07:18;;;;;;;7.93;7.13;;;;;;;;;;4996116;28;20239;-67
2022/07/08 00:09:45;;;;;;;9.47;6.70;;;;;;;;;;4999891;28;20235;-67
2022/07/08 00:12:12;;;;;;;9.90;7.00;;;;;;;;;;4997338;28;20769;-66
2022/07/08 00:14:39;;;;;;;8.83;6.80;;;;;;;;;;4983464;28;20227;-67
2022/07/08 00:17:06;;;;;;;8.03;7.07;;;;;;;;;;4995738;28;20223;-67
2022/07/08 00:19:32;;;;;;;9.40;6.50;;;;;;;;;;4973481;28;20240;-67
2022/07/08 00:21:59;;;;;;;7.90;6.70;;;;;;;;;;4996593;28;20227;-67
2022/07/08 00:24:26;;;;;;;9.73;7.40;;;;;;;;;;4998518;28;20233;-67
2022/07/08 00:26:53;;;;;;;10.80;6.60;;;;;;;;;;4999318;28;20230;-67
2022/07/08 00:29:20;;;;;;;9.03;6.10;;;;;;;;;;5004196;28;20223;-67
2022/07/08 00:31:47;;;;;;;8.07;6.57;;;;;;;;;;5003164;28;20227;-67
2022/07/08 00:34:13;;;;;;;7.03;6.27;;;;;;;;;;5002866;28;20314;-67
2022/07/08 00:36:40;;;;;;;8.00;6.37;;;;;;;;;;4991358;28;20634;-67
2022/07/08 00:39:07;;;;;;;7.50;6.73;;;;;;;;;;4991772;28;20231;-67
2022/07/08 00:41:34;;;;;;;8.93;6.57;;;;;;;;;;4998112;28;20225;-67
2022/07/08 00:44:01;;;;;;;6.23;5.63;;;;;;;;;;4999672;28;20376;-68
2022/07/08 00:46:28;;;;;;;6.70;6.00;;;;;;;;;;5000022;28;20262;-67
2022/07/08 00:48:54;;;;;;;7.17;5.73;;;;;;;;;;5001620;28;20243;-67
2022/07/08 00:51:21;;;;;;;7.97;6.60;;;;;;;;;;4997365;28;20238;-67
2022/07/08 00:53:51;;;;;;;6.60;5.40;;;;;;;;;;4990598;28;20599;-67
2022/07/08 00:56:19;;;;;;;7.70;5.17;;;;;;;;;;4964006;28;20328;-67
2022/07/08 00:58:46;;;;;;;6.43;5.77;;;;;;;;;;4986426;28;20234;-67
2022/07/08 01:01:30;;;;;;;8.80;6.57;;;;;;;;;;5001209;28;20219;-67
2022/07/08 01:03:57;;;;;;;8.60;7.70;;;;;;;;;;4999456;28;20231;-67
2022/07/08 01:06:23;;;;;;;10.63;7.67;;;;;;;;;;4981554;28;20305;-67
2022/07/08 01:08:50;;;;;;;11.13;7.70;;;;;;;;;;4986472;28;20229;-67
2022/07/08 01:11:17;;;;;;;12.17;7.80;;;;;;;;;;4994902;28;20726;-67
2022/07/08 01:13:44;;;;;;;11.77;7.50;;;;;;;;;;5000068;28;20256;-67
2022/07/08 01:16:10;;;;;;;9.03;8.10;;;;;;;;;;4998476;28;20368;-67
2022/07/08 01:18:37;;;;;;;9.17;7.10;;;;;;;;;;4982752;28;20614;-67
2022/07/08 01:21:04;;;;;;;9.67;8.40;;;;;;;;;;4983716;28;20227;-67
2022/07/08 01:23:48;;;;;;;9.47;7.80;;;;;;;;;;5000597;28;20219;-67
2022/07/08 01:26:15;;;;;;;9.90;8.60;;;;;;;;;;4974054;28;20247;-67
2022/07/08 01:28:42;;;;;;;10.43;8.40;;;;;;;;;;4993075;28;20230;-67
2022/07/08 01:31:09;;;;;;;10.10;8.23;;;;;;;;;;4992469;28;20266;-67
2022/07/08 01:33:35;;;;;;;10.80;8.17;;;;;;;;;;5002222;28;20233;-67
2022/07/08 01:36:02;;;;;;;11.70;7.87;;;;;;;;;;5002363;28;20365;-67
2022/07/08 01:38:29;;;;;;;9.50;7.50;;;;;;;;;;5003999;28;20235;-67
2022/07/08 01:40:57;;;;;;;8.83;7.10;;;;;;;;;;4996095;28;20236;-67
2022/07/08 01:43:23;;;;;;;10.23;6.90;;;;;;;;;;4997572;28;20241;-67
2022/07/08 01:46:08;;;;;;;11.63;7.50;;;;;;;;;;4998265;28;20237;-67
2022/07/08 01:48:34;;;;;;;10.87;7.83;;;;;;;;;;5004642;28;20945;-67
2022/07/08 01:51:01;;;;;;;8.10;6.73;;;;;;;;;;4999604;28;20229;-67
2022/07/08 01:53:28;;;;;;;7.80;7.00;;;;;;;;;;5001980;28;20231;-67
2022/07/08 01:55:54;;;;;;;8.87;6.83;;;;;;;;;;5002342;28;20227;-67
2022/07/08 01:58:21;;;;;;;7.53;6.73;;;;;;;;;;4999718;28;20235;-67
2022/07/08 02:00:48;;;;;;;8.77;6.83;;;;;;;;;;4999555;28;20235;-67
2022/07/08 02:03:15;;;;;;;8.30;6.90;;;;;;;;;;5003896;28;21045;-67
2022/07/08 02:05:41;;;;;;;9.60;6.37;;;;;;;;;;4995507;28;20231;-67
2022/07/08 02:08:08;;;;;;;8.20;6.73;;;;;;;;;;5003780;28;20713;-67
2022/07/08 02:13:20;;;;;;;10.20;7.10;;;;;;;;;;4989598;28;20223;-67
2022/07/08 02:15:47;;;;;;;9.67;7.00;;;;;;;;;;4994601;28;20235;-67
2022/07/08 02:18:14;;;;;;;10.47;7.07;;;;;;;;;;4986792;28;20306;-67
2022/07/08 02:20:40;;;;;;;9.10;7.17;;;;;;;;;;4999074;28;20228;-66
2022/07/08 02:23:07;;;;;;;7.97;7.17;;;;;;;;;;4989262;28;20240;-67
2022/07/08 02:25:34;;;;;;;8.20;7.40;;;;;;;;;;5002526;28;20231;-67
2022/07/08 02:28:01;;;;;;;8.43;7.53;;;;;;;;;;5003464;28;20634;-67
2022/07/08 02:30:45;;;;;;;9.77;7.43;;;;;;;;;;4994560;28;20231;-67
2022/07/08 02:33:12;;;;;;;10.63;7.40;;;;;;;;;;4998781;28;20740;-67
2022/07/08 02:35:39;;;;;;;8.57;7.30;;;;;;;;;;4998786;28;20519;-67
2022/07/08 02:38:06;;;;;;;8.77;6.93;;;;;;;;;;5003026;28;20235;-67
2022/07/08 02:40:33;;;;;;;8.37;6.80;;;;;;;;;;4994987;28;22311;-67
2022/07/08 02:42:59;;;;;;;9.97;7.00;;;;;;;;;;4991939;28;20235;-67
2022/07/08 02:45:26;;;;;;;8.43;6.23;;;;;;;;;;4983818;28;20238;-67
2022/07/08 02:47:53;;;;;;;7.33;5.87;;;;;;;;;;4995699;28;20234;-67
2022/07/08 02:50:19;;;;;;;6.47;5.70;;;;;;;;;;4997357;28;20238;-67
2022/07/08 02:52:46;;;;;;;7.87;5.87;;;;;;;;;;5002995;28;20365;-67
2022/07/08 02:55:13;;;;;;;6.00;5.00;;;;;;;;;;4997740;28;20231;-67
2022/07/08 02:57:39;;;;;;;6.13;5.33;;;;;;;;;;4987886;28;20223;-67
2022/07/08 03:00:06;;;;;;;7.47;5.70;;;;;;;;;;4991671;28;20266;-67
2022/07/08 03:02:33;;;;;;;8.77;5.93;;;;;;;;;;4995623;28;20431;-67
2022/07/08 03:05:00;;;;;;;8.20;5.60;;;;;;;;;;4992431;28;20590;-67
2022/07/08 03:07:27;;;;;;;7.33;5.80;;;;;;;;;;4985613;28;20285;-67
2022/07/08 03:09:54;;;;;;;6.97;5.90;;;;;;;;;;4983996;28;20226;-67
2022/07/08 03:12:21;;;;;;;8.03;6.10;;;;;;;;;;5003118;28;20226;-67
2022/07/08 03:14:47;;;;;;;7.03;5.83;;;;;;;;;;4995287;28;20238;-67
2022/07/08 03:17:14;;;;;;;6.10;5.50;;;;;;;;;;4991711;28;20277;-67
2022/07/08 03:19:41;;;;;;;7.23;5.50;;;;;;;;;;4986420;28;20250;-68
2022/07/08 03:22:07;;;;;;;7.50;5.37;;;;;;;;;;4991679;28;20378;-67
2022/07/08 03:24:34;;;;;;;7.23;5.37;;;;;;;;;;4990632;28;20219;-67
2022/07/08 03:27:01;;;;;;;7.03;5.67;;;;;;;;;;4998115;28;22053;-67
2022/07/08 03:29:28;;;;;;;6.57;5.50;;;;;;;;;;4999106;28;20306;-67
2022/07/08 03:31:55;;;;;;;6.27;5.67;;;;;;;;;;4984117;28;21079;-67
2022/07/08 03:34:22;;;;;;;7.63;5.30;;;;;;;;;;4999287;28;20249;-67
2022/07/08 03:36:48;;;;;;;6.80;5.53;;;;;;;;;;4986711;28;20314;-67
2022/07/08 03:39:15;;;;;;;6.60;5.67;;;;;;;;;;4978632;28;20246;-67
2022/07/08 03:41:42;;;;;;;6.50;5.37;;;;;;;;;;4991006;28;20702;-67
2022/07/08 03:44:08;;;;;;;6.93;5.63;;;;;;;;;;4988796;28;20227;-67
2022/07/08 03:46:35;;;;;;;8.00;5.87;;;;;;;;;;4997229;28;20227;-68
2022/07/08 03:49:02;;;;;;;8.00;5.60;;;;;;;;;;4995485;28;20233;-67
2022/07/08 03:51:29;;;;;;;7.60;5.70;;;;;;;;;;4987782;28;20231;-67
2022/07/08 03:54:13;;;;;;;7.07;6.10;;;;;;;;;;4996498;28;20303;-67
2022/07/08 03:56:40;;;;;;;6.30;5.70;;;;;;;;;;4988355;28;20235;-68
2022/07/08 03:59:07;;;;;;;6.13;5.53;;;;;;;;;;4996685;28;20223;-67
2022/07/08 04:01:34;;;;;;;7.73;5.97;;;;;;;;;;5000084;28;20257;-67
2022/07/08 04:04:01;;;;;;;6.60;5.87;;;;;;;;;;5000269;28;20698;-67
2022/07/08 04:06:27;;;;;;;7.27;6.30;;;;;;;;;;4999834;28;20245;-67
2022/07/08 04:08:54;;;;;;;10.07;6.33;;;;;;;;;;4998405;28;20220;-67
2022/07/08 04:11:21;;;;;;;8.37;6.90;;;;;;;;;;4997366;28;20238;-67
2022/07/08 04:13:47;;;;;;;7.27;6.43;;;;;;;;;;4992274;28;20228;-66
2022/07/08 04:16:15;;;;;;;10.47;5.90;;;;;;;;;;4993509;28;20323;-67
2022/07/08 04:18:41;;;;;;;9.47;6.17;;;;;;;;;;4999960;28;20630;-67
2022/07/08 04:21:08;;;;;;;8.80;6.67;;;;;;;;;;4984769;28;20223;-67
2022/07/08 04:23:35;;;;;;;8.70;6.20;;;;;;;;;;5000155;28;21056;-66
2022/07/08 04:26:02;;;;;;;8.47;6.40;;;;;;;;;;4982172;28;20580;-67
2022/07/08 04:28:29;;;;;;;7.33;5.83;;;;;;;;;;4983858;28;20236;-66
2022/07/08 04:30:57;;;;;;;8.53;5.63;;;;;;;;;;4980624;28;20235;-67
2022/07/08 04:33:24;;;;;;;7.73;5.87;;;;;;;;;;4985641;28;20279;-66
2022/07/08 04:35:50;;;;;;;9.87;5.60;;;;;;;;;;4999998;28;20257;-66
2022/07/08 04:38:17;;;;;;;7.70;5.50;;;;;;;;;;4970229;28;20312;-67
2022/07/08 04:40:44;;;;;;;8.47;5.60;;;;;;;;;;4989517;28;20238;-70
2022/07/08 04:43:12;;;;;;;7.57;5.67;;;;;;;;;;4990332;28;20264;-68
2022/07/08 04:45:45;;;;;;;6.70;6.00;;;;;;;;;;4976716;28;20320;-68
2022/07/08 04:48:12;;;;;;;8.73;5.57;;;;;;;;;;4992716;28;20235;-67
2022/07/08 04:50:39;;;;;;;7.80;5.80;;;;;;;;;;4989173;28;20222;-66
2022/07/08 04:53:06;;;;;;;7.80;5.43;;;;;;;;;;4971366;28;20231;-66
2022/07/08 04:55:32;;;;;;;7.73;5.53;;;;;;;;;;4992017;28;20293;-66
2022/07/08 04:58:00;;;;;;;7.33;4.70;;;;;;;;;;4993459;28;20308;-66
2022/07/08 05:00:44;;;;;;;8.80;5.53;;;;;;;;;;4975915;28;20230;-65
2022/07/08 05:03:11;;;;;;;8.70;5.50;;;;;;;;;;4993286;28;25742;-64
2022/07/08 05:05:38;;;;;;;6.00;4.90;;;;;;;;;;4990496;28;20239;-65
2022/07/08 05:08:04;;;;;;;7.80;4.90;;;;;;;;;;4975451;28;20231;-66
2022/07/08 05:10:31;;;;;;;6.37;5.13;;;;;;;;;;4999193;28;20698;-66
2022/07/08 05:12:58;;;;;;;7.17;5.00;;;;;;;;;;4995298;28;20297;-65
2022/07/08 05:15:25;;;;;;;4.93;4.30;;;;;;;;;;4990745;28;20262;-66
2022/07/08 05:17:55;;;;;;;5.77;4.70;;;;;;;;;;4987637;28;20230;-67
2022/07/08 05:20:24;;;;;;;4.73;4.00;;;;;;;;;;4995046;28;21013;-65
2022/07/08 05:22:51;;;;;;;4.43;3.80;;;;;;;;;;4997101;28;20952;-67
2022/07/08 05:25:17;;;;;;;7.00;4.10;;;;;;;;;;4995770;28;20767;-65
2022/07/08 05:27:44;;;;;;;6.97;4.00;;;;;;;;;;4998121;28;20334;-67
2022/07/08 05:30:28;;;;;;;6.13;3.87;;;;;;;;;;4993267;28;20223;-67
2022/07/08 05:32:55;;;;;;;6.80;4.17;;;;;;;;;;4997130;28;20238;-66
2022/07/08 05:35:22;;;;;;;5.67;4.07;;;;;;;;;;4994246;28;20223;-65
2022/07/08 05:37:49;;;;;;;6.20;4.13;;;;;;;;;;4984949;28;20242;-66
2022/07/08 05:40:16;;;;;;;5.40;4.10;;;;;;;;;;4975811;28;20239;-66
2022/07/08 05:42:42;;;;;;;4.57;3.93;;;;;;;;;;4995537;28;20373;-66
2022/07/08 05:45:09;;;;;;;5.33;3.67;;;;;;;;;;4976831;28;20228;-66
2022/07/08 05:47:36;;;;;;;3.87;3.30;;;;;;;;;;4997227;28;20246;-64
2022/07/08 05:50:20;;;;;;;3.80;3.20;;;;;;;;;;4993050;28;20261;-65
2022/07/08 05:52:47;;;;;;;5.13;3.47;;;;;;;;;;4997163;28;20235;-65
2022/07/08 05:55:32;;;;;;;5.33;3.07;;;;;;;;;;4993753;28;20310;-65
2022/07/08 05:57:58;;;;;;;4.33;2.87;;;;;;;;;;4998033;28;20339;-65
2022/07/08 06:00:25;;;;;;;3.10;2.70;;;;;;;;;;4993875;28;20231;-65
2022/07/08 06:02:52;;;;;;;3.77;2.47;;;;;;;;;;4978112;28;20237;-65
2022/07/08 06:05:20;;;;;;;2.80;2.40;;;;;;;;;;4996322;28;20223;-67
2022/07/08 06:07:47;;;;;;;6.40;2.63;;;;;;;;;;4995178;28;20346;-66
2022/07/08 06:10:19;;;;;;;2.97;2.23;;;;;;;;;;4993993;28;20234;-66
2022/07/08 06:12:47;;;;;;;5.00;2.70;;;;;;;;;;4981967;28;20235;-67
2022/07/08 06:15:14;;;;;;;3.00;2.13;;;;;;;;;;4992588;28;20973;-66
2022/07/08 06:17:41;;;;;;;1.93;1.73;;;;;;;;;;4974749;28;20523;-66
2022/07/08 06:20:08;;;;;;;2.30;1.97;;;;;;;;;;4995937;28;23430;-67
2022/07/08 06:22:37;;;;;;;3.17;1.73;;;;;;;;;;5003653;28;21137;-66
2022/07/08 06:25:03;;;;;;;2.27;1.80;;;;;;;;;;5002328;28;20242;-66
2022/07/08 06:27:30;;;;;;;2.37;1.63;;;;;;;;;;4988961;28;20628;-66
2022/07/08 06:29:57;;;;;;;1.77;1.60;;;;;;;;;;4993927;28;20892;-69
2022/07/08 06:32:24;;;;;;;3.40;1.60;;;;;;;;;;4978333;28;20823;-67
2022/07/08 06:34:51;;;;;;;2.50;1.30;;;;;;;;;;4994757;28;20253;-66
2022/07/08 06:37:18;;;;;;;4.37;1.20;;;;;;;;;;4974520;28;22390;-68
2022/07/08 06:39:45;;;;;;;4.60;1.03;;;;;;;;;;4981181;28;222235;-66
2022/07/08 06:42:13;;;;;;;1.00;0.77;;;;;;;;;;4997125;28;20235;-64
2022/07/08 06:44:42;;;;;;;2.47;0.67;;;;;;;;;;4961165;28;20235;-67
2022/07/08 06:47:11;;;;;;;0.57;0.57;;;;;;;;;;4994181;28;20242;-66
2022/07/08 06:49:45;;;;;;;0.63;0.50;;;;;;;;;;4989692;28;20705;-66
2022/07/08 06:52:13;;;;;;;0.60;0.53;;;;;;;;;;4996361;28;20247;-66
2022/07/08 06:54:39;;;;;;;0.90;0.70;;;;;;;;;;4987502;28;214204;-66
2022/07/08 06:57:07;;;;;;;0.50;0.50;;;;;;;;;;4977268;28;20702;-68
2022/07/08 06:59:37;;;;;;;0.80;0.80;;;;;;;;;;4977727;28;20265;-65
2022/07/08 07:02:24;;;;;;;0.90;0.90;;;;;;;;;;4980202;28;20238;-66
2022/07/08 07:04:52;;;;;;;1.83;0.77;;;;;;;;;;4984767;28;21540;-66
2022/07/08 07:07:20;;;;;;;1.70;1.07;;;;;;;;;;4991332;28;20239;-66
2022/07/08 07:09:47;;;;;;;0.90;0.70;;;;;;;;;;4994402;28;20223;-64
2022/07/08 07:12:17;;;;;;;1.57;0.80;;;;;;;;;;4995762;28;20227;-65
2022/07/08 07:14:45;;;;;;;3.00;0.90;;;;;;;;;;4994083;28;20306;-64
2022/07/08 07:17:12;;;;;;;1.83;0.87;;;;;;;;;;4976243;28;20261;-65
2022/07/08 07:19:41;;;;;;;2.37;1.00;;;;;;;;;;4965668;28;20231;-66
2022/07/08 07:22:09;;;;;;;1.87;1.10;;;;;;;;;;4988350;28;20326;-66
2022/07/08 07:24:36;;;;;;;0.97;0.87;;;;;;;;;;4975648;28;20239;-66
2022/07/08 07:27:04;;;;;;;1.20;1.10;;;;;;;;;;4981008;28;20343;-67
2022/07/08 07:29:32;;;;;;;1.63;1.00;;;;;;;;;;4987721;28;20346;-66
2022/07/08 07:32:16;;;;;;;2.17;1.50;;;;;;;;;;4992264;28;20227;-66
2022/07/08 07:34:43;;;;;;;2.57;1.20;;;;;;;;;;4990375;28;21205;-65
2022/07/08 07:37:10;;;;;;;1.87;1.20;;;;;;;;;;4974398;28;20231;-66
2022/07/08 07:39:37;;;;;;;2.00;1.30;;;;;;;;;;4960462;28;20239;-70
2022/07/08 07:42:04;;;;;;;2.40;1.00;;;;;;;;;;4983970;28;21065;-65
2022/07/08 07:44:32;;;;;;;1.50;0.90;;;;;;;;;;4992948;28;20698;-67
2022/07/08 07:46:59;;;;;;;2.57;1.20;;;;;;;;;;4986765;28;20703;-66
2022/07/08 07:49:43;;;;;;;3.27;1.10;;;;;;;;;;4992857;28;20231;-67
2022/07/08 07:52:10;;;;;;;1.60;0.90;;;;;;;;;;4989460;28;20571;-70
2022/07/08 07:54:57;;;;;;;2.33;1.00;;;;;;;;;;4991766;28;20590;-66
2022/07/08 07:57:31;;;;;;;0.80;0.80;;;;;;;;;;4989387;28;30269;-68
2022/07/08 07:59:58;;;;;;;1.47;0.80;;;;;;;;;;4992012;28;20226;-68
2022/07/08 08:02:25;;;;;;;1.00;0.90;;;;;;;;;;4992156;28;20253;-67
2022/07/08 08:04:52;;;;;;;1.00;0.80;;;;;;;;;;4993871;28;20230;-69
2022/07/08 08:07:38;;;;;;;1.13;0.80;;;;;;;;;;4972781;28;20230;-71
2022/07/08 08:10:05;;;;;;;1.57;0.70;;;;;;;;;;4993182;28;20221;-68
2022/07/08 08:12:33;;;;;;;0.97;0.73;;;;;;;;;;4990471;28;20690;-68
2022/07/08 08:15:01;;;;;;;1.17;0.77;;;;;;;;;;4969127;28;39599;-68
2022/07/08 08:17:47;;;;;;;1.17;0.63;;;;;;;;;;4990938;28;20235;-70
2022/07/08 08:20:14;;;;;;;0.70;0.70;;;;;;;;;;4988771;28;20353;-67
2022/07/08 08:22:59;;;;;;;2.20;0.70;;;;;;;;;;4965323;28;20866;-68
2022/07/08 08:25:46;;;;;;;0.77;0.70;;;;;;;;;;4992019;28;20249;-68
2022/07/08 08:28:13;;;;;;;0.70;0.70;;;;;;;;;;4946848;28;20710;-67
2022/07/08 08:30:40;;;;;;;0.67;0.60;;;;;;;;;;4990868;28;20230;-66
2022/07/08 08:33:08;;;;;;;1.07;0.80;;;;;;;;;;4990798;28;20256;-66
2022/07/08 08:35:35;;;;;;;2.00;0.70;;;;;;;;;;4972818;28;20235;-67
2022/07/08 08:38:01;;;;;;;1.67;0.83;;;;;;;;;;4964775;28;20259;-66
2022/07/08 08:40:28;;;;;;;1.67;0.67;;;;;;;;;;4971393;28;20223;-67
2022/07/08 08:42:55;;;;;;;0.90;0.70;;;;;;;;;;4964679;28;20223;-67
2022/07/08 08:45:29;;;;;;;2.73;1.00;;;;;;;;;;4983150;28;23037;-68
2022/07/08 08:47:56;;;;;;;1.40;1.00;;;;;;;;;;4974979;28;20565;-66
2022/07/08 08:53:09;;;;;;;2.73;1.03;;;;;;;;;;4991307;28;20981;-67
2022/07/08 08:55:36;;;;;;;1.77;1.40;;;;;;;;;;4988766;28;20230;-69
2022/07/08 08:58:03;;;;;;;1.57;1.13;;;;;;;;;;4972582;28;20235;-68
2022/07/08 09:00:31;;;;;;;1.10;1.00;;;;;;;;;;4990820;28;20242;-68
2022/07/08 09:02:59;;;;;;;0.90;0.90;;;;;;;;;;4989841;28;20355;-68
2022/07/08 09:05:27;;;;;;;1.30;0.80;;;;;;;;;;4995042;28;20227;-72
2022/07/08 09:07:54;;;;;;;1.77;0.83;;;;;;;;;;4986136;28;20933;-67
2022/07/08 09:10:20;;;;;;;0.53;0.53;;;;;;;;;;4999148;28;20622;-67
2022/07/08 09:13:03;;;;;;;1.40;0.60;;;;;;;;;;4983331;28;20235;-67
2022/07/08 09:15:31;;;;;;;0.90;0.60;;;;;;;;;;4998498;28;20226;-67
2022/07/08 09:18:01;;;;;;;0.77;0.63;;;;;;;;;;5000424;28;20576;-67
2022/07/08 09:20:36;;;;;;;1.63;0.60;;;;;;;;;;4992804;28;20234;-68
2022/07/08 09:23:04;;;;;;;0.90;0.60;;;;;;;;;;4982725;28;20241;-67
2022/07/08 09:25:32;;;;;;;3.07;0.60;;;;;;;;;;4971155;28;20261;-69
2022/07/08 09:27:59;;;;;;;1.87;0.70;;;;;;;;;;4973889;28;20318;-67
2022/07/08 09:30:27;;;;;;;2.90;0.60;;;;;;;;;;4993583;28;20338;-67
2022/07/08 09:33:00;;;;;;;0.83;0.40;;;;;;;;;;4989798;28;20242;-67
2022/07/08 09:35:32;;;;;;;1.13;0.50;;;;;;;;;;4990634;28;20578;-66
2022/07/08 09:38:04;;;;;;;2.57;0.53;;;;;;;;;;4991413;28;20227;-68
2022/07/08 09:40:33;;;;;;;3.13;0.50;;;;;;;;;;4989111;28;20234;-69
2022/07/08 09:43:02;;;;;;;1.00;0.60;;;;;;;;;;4992223;28;32587;-68
2022/07/08 09:45:31;;;;;;;0.43;0.40;;;;;;;;;;4992015;28;20319;-67
2022/07/08 09:48:03;;;;;;;0.33;0.30;;;;;;;;;;4987501;28;20231;-68
2022/07/08 09:50:34;;;;;;;2.13;0.50;;;;;;;;;;4973662;28;20235;-68
2022/07/08 09:53:29;;;;;;;0.73;0.30;;;;;;;;;;4992744;28;20235;-67
2022/07/08 09:55:58;;;;;;;3.80;0.40;;;;;;;;;;5003804;28;20237;-67
2022/07/08 09:58:29;;;;;;;1.37;0.60;;;;;;;;;;4991316;28;230711;-65
2022/07/08 10:00:56;;;;;;;0.80;0.50;;;;;;;;;;4975596;28;20377;-66
2022/07/08 10:03:31;;;;;;;1.33;0.50;;;;;;;;;;4966850;28;20231;-66
2022/07/08 10:06:04;;;;;;;2.93;0.50;;;;;;;;;;5000826;28;21057;-66
2022/07/08 10:08:49;;;;;;;0.93;0.60;;;;;;;;;;4996474;28;20235;-66
2022/07/08 10:11:16;;;;;;;1.00;0.50;;;;;;;;;;5003409;28;20231;-65
2022/07/08 10:17:31;;;;;;;1.60;0.60;;;;;;;;;;4992686;28;20285;-65
2022/07/08 10:28:06;;;;;;;2.53;0.60;;;;;;;;;;4991801;28;20226;-64
2022/07/08 10:30:46;;;;;;;0.73;0.50;;;;;;;;;;4990337;28;20230;-64
2022/07/08 10:33:48;;;;;;;1.03;0.40;;;;;;;;;;4967213;28;20219;-65
2022/07/08 10:36:23;;;;;;;0.73;0.50;;;;;;;;;;4989455;28;20294;-65
2022/07/08 10:38:55;;;;;;;0.97;0.60;;;;;;;;;;4993520;28;20904;-65
2022/07/08 10:41:26;;;;;;;1.70;0.50;;;;;;;;;;4994140;28;20235;-65
2022/07/08 10:44:18;;;;;;;0.70;0.53;;;;;;;;;;4991823;28;20290;-66
2022/07/08 10:50:34;;;;;;;1.50;0.50;;;;;;;;;;4992147;28;21093;-64
2022/07/08 10:53:01;;;;;;;2.40;0.40;;;;;;;;;;4991655;28;20296;-64
2022/07/08 10:55:29;;;;;;;0.80;0.37;;;;;;;;;;4978711;28;20223;-65
2022/07/08 10:57:57;;;;;;;0.83;0.40;;;;;;;;;;4992658;28;20243;-63
2022/07/08 11:00:24;;;;;;;0.90;0.30;;;;;;;;;;4993548;28;20226;-66
2022/07/08 11:02:51;;;;;;;1.73;0.50;;;;;;;;;;4995163;28;20224;-65
2022/07/08 11:05:37;;;;;;;0.97;0.40;;;;;;;;;;4992011;28;20258;-64
2022/07/08 11:08:19;;;;;;;0.60;0.30;;;;;;;;;;4995655;28;20255;-65
2022/07/08 11:10:46;;;;;;;2.70;0.53;;;;;;;;;;4994189;28;20306;-63
2022/07/08 11:13:20;;;;;;;1.07;0.40;;;;;;;;;;4994099;28;20227;-66
2022/07/08 11:15:47;;;;;;;3.33;0.40;;;;;;;;;;4992630;28;20227;-65
2022/07/08 11:18:21;;;;;;;0.90;0.40;;;;;;;;;;4997643;28;20245;-64
2022/07/08 11:20:49;;;;;;;2.63;0.40;;;;;;;;;;4994437;28;20220;-65
2022/07/08 11:23:33;;;;;;;0.40;0.27;;;;;;;;;;4994085;28;20586;-64
2022/07/08 11:26:00;;;;;;;0.63;0.50;;;;;;;;;;4993821;28;20227;-64
2022/07/08 11:28:29;;;;;;;0.40;0.40;;;;;;;;;;4995292;28;20235;-65
2022/07/08 11:30:57;;;;;;;2.03;0.40;;;;;;;;;;4992987;28;20277;-64
2022/07/08 11:33:40;;;;;;;1.60;0.30;;;;;;;;;;4989876;28;20259;-64
2022/07/08 11:36:16;;;;;;;1.03;0.40;;;;;;;;;;4982877;28;20224;-63
2022/07/08 11:38:46;;;;;;;1.53;0.50;;;;;;;;;;4993070;28;20372;-64
2022/07/08 11:41:13;;;;;;;1.87;0.30;;;;;;;;;;4991649;28;20235;-64
2022/07/08 11:43:40;;;;;;;1.33;0.40;;;;;;;;;;4985413;28;20254;-64
2022/07/08 11:46:24;;;;;;;0.53;0.30;;;;;;;;;;4993158;28;20732;-65
2022/07/08 11:48:53;;;;;;;0.70;0.30;;;;;;;;;;4995325;28;20314;-65
2022/07/08 12:02:52;;;;;;;2.83;0.50;;;;;;;;;;4972995;28;20277;-64
2022/07/08 12:05:24;;;;;;;0.40;0.30;;;;;;;;;;4989249;28;20305;-64
2022/07/08 12:07:54;;;;;;;0.60;0.40;;;;;;;;;;4993435;28;20231;-65
2022/07/08 12:18:00;;;;;;;1.93;0.60;;;;;;;;;;4967918;28;20238;-65
2022/07/08 12:20:34;;;;;;;1.93;0.40;;;;;;;;;;4974641;28;20314;-65
2022/07/08 12:23:01;;;;;;;4.23;0.83;;;;;;;;;;5000235;28;20288;-65
2022/07/08 12:25:28;;;;;;;0.63;0.30;;;;;;;;;;4986247;28;20317;-64
2022/07/08 12:27:55;;;;;;;0.60;0.40;;;;;;;;;;4999975;28;20400;-65
2022/07/08 12:30:26;;;;;;;0.67;0.30;;;;;;;;;;5000978;28;20699;-64
2022/07/08 12:32:53;;;;;;;1.77;0.40;;;;;;;;;;4999541;28;20242;-65
2022/07/08 12:35:20;;;;;;;2.47;0.50;;;;;;;;;;4970819;28;20227;-64
2022/07/08 12:37:46;;;;;;;0.50;0.30;;;;;;;;;;4993920;28;20227;-65
2022/07/08 12:40:14;;;;;;;1.40;0.37;;;;;;;;;;5001680;28;20289;-64
2022/07/08 12:42:43;;;;;;;0.50;0.30;;;;;;;;;;4999613;28;20318;-64
2022/07/08 12:45:14;;;;;;;1.97;0.50;;;;;;;;;;5001429;28;20309;-64
2022/07/08 12:47:41;;;;;;;0.40;0.40;;;;;;;;;;4999124;28;20234;-64
2022/07/08 12:50:09;;;;;;;0.67;0.40;;;;;;;;;;4983751;28;20785;-64
2022/07/08 12:52:37;;;;;;;1.90;0.50;;;;;;;;;;4971599;28;20703;-66
2022/07/08 12:55:05;;;;;;;0.30;0.30;;;;;;;;;;4999618;28;20369;-64
2022/07/08 12:57:32;;;;;;;0.33;0.30;;;;;;;;;;5001737;28;20324;-65
2022/07/08 12:59:59;;;;;;;0.53;0.30;;;;;;;;;;4969895;28;20230;-65
2022/07/08 13:02:28;;;;;;;1.53;0.40;;;;;;;;;;4998609;28;20235;-65
2022/07/08 13:04:55;;;;;;;0.93;0.50;;;;;;;;;;5001671;28;20235;-64
2022/07/08 13:07:23;;;;;;;1.30;0.47;;;;;;;;;;4998638;28;20339;-63
2022/07/08 13:09:52;;;;;;;0.43;0.40;;;;;;;;;;5001885;28;20247;-64
2022/07/08 13:12:43;;;;;;;0.77;0.40;;;;;;;;;;4979937;28;21786;-64
2022/07/08 13:15:17;;;;;;;1.87;0.30;;;;;;;;;;4998587;28;20235;-63
2022/07/08 13:18:03;;;;;;;0.57;0.30;;;;;;;;;;4998605;28;20316;-64
2022/07/08 13:20:30;;;;;;;1.93;0.33;;;;;;;;;;5001631;28;20567;-64
2022/07/08 13:22:57;;;;;;;1.80;0.30;;;;;;;;;;4998811;28;20312;-64
2022/07/08 13:25:24;;;;;;;0.93;0.30;;;;;;;;;;5005031;28;20295;-64
2022/07/08 13:28:08;;;;;;;0.63;0.40;;;;;;;;;;4988585;28;20273;-64
2022/07/08 13:30:45;;;;;;;0.40;0.33;;;;;;;;;;5003500;28;20306;-63
2022/07/08 13:33:13;;;;;;;0.37;0.30;;;;;;;;;;5003186;28;20241;-64
2022/07/08 13:35:40;;;;;;;1.67;0.70;;;;;;;;;;5004458;28;20223;-64
2022/07/08 13:38:07;;;;;;;1.20;0.40;;;;;;;;;;5003006;28;20305;-64
2022/07/08 13:40:33;;;;;;;0.70;0.40;;;;;;;;;;5004609;28;20230;-64
2022/07/08 13:43:00;;;;;;;7.23;1.20;;;;;;;;;;5004060;28;20227;-64
2022/07/08 13:48:51;;;;;;;0.70;0.40;;;;;;;;;;5001778;28;20668;-64
2022/07/08 13:51:21;;;;;;;0.57;0.40;;;;;;;;;;5004615;28;20225;-63
2022/07/08 13:53:47;;;;;;;1.93;0.37;;;;;;;;;;5003148;28;20221;-64
2022/07/08 13:56:14;;;;;;;0.90;0.37;;;;;;;;;;4987987;28;20228;-62
2022/07/08 13:58:41;;;;;;;3.17;0.50;;;;;;;;;;5003149;28;20247;-63
2022/07/08 14:01:26;;;;;;;1.20;0.50;;;;;;;;;;4987153;28;20705;-63
2022/07/08 14:03:53;;;;;;;2.60;0.53;;;;;;;;;;5002551;28;20260;-64
2022/07/08 14:06:21;;;;;;;2.67;0.80;;;;;;;;;;5003058;28;20242;-64
2022/07/08 14:08:49;;;;;;;2.80;0.60;;;;;;;;;;4982875;28;20228;-64
2022/07/08 14:11:16;;;;;;;2.70;0.70;;;;;;;;;;4999620;28;20375;-63
2022/07/08 14:13:43;;;;;;;2.83;0.87;;;;;;;;;;4996470;28;20231;-64
2022/07/08 14:16:10;;;;;;;2.73;0.80;;;;;;;;;;5002397;28;20312;-64
2022/07/08 14:18:37;;;;;;;2.17;0.80;;;;;;;;;;4992601;28;24569;-64
2022/07/08 14:21:06;;;;;;;1.87;0.70;;;;;;;;;;4994277;28;20679;-64
2022/07/08 14:23:33;;;;;;;4.20;1.10;;;;;;;;;;4959675;28;20406;-64
2022/07/08 14:26:02;;;;;;;2.87;0.60;;;;;;;;;;5000512;28;20238;-63
2022/07/08 14:28:29;;;;;;;2.13;0.67;;;;;;;;;;4999415;28;20228;-63
2022/07/08 14:30:56;;;;;;;2.70;0.70;;;;;;;;;;4987958;28;20236;-64
2022/07/08 14:33:24;;;;;;;2.40;0.80;;;;;;;;;;4996620;28;20259;-64
2022/07/08 14:35:51;;;;;;;2.73;0.87;;;;;;;;;;4992494;28;20232;-64
2022/07/08 14:38:17;;;;;;;3.10;0.93;;;;;;;;;;5002654;28;20244;-64
2022/07/08 14:40:45;;;;;;;3.37;1.10;;;;;;;;;;5001778;28;20254;-63
2022/07/08 14:43:14;;;;;;;2.53;1.00;;;;;;;;;;4998616;28;20292;-63
2022/07/08 14:45:44;;;;;;;5.57;0.90;;;;;;;;;;5002771;28;20228;-62
2022/07/08 14:48:55;;;;;;;4.13;0.90;;;;;;;;;;4978507;28;20311;-63
2022/07/08 14:51:38;;;;;;;3.37;1.10;;;;;;;;;;4974170;28;20773;-65
2022/07/08 14:54:12;;;;;;;4.30;1.23;;;;;;;;;;4964266;28;20239;-63
2022/07/08 14:56:39;;;;;;;3.93;1.00;;;;;;;;;;4980693;28;20240;-62
2022/07/08 14:59:07;;;;;;;4.00;1.20;;;;;;;;;;4963344;28;20747;-64
2022/07/08 15:01:34;;;;;;;9.30;1.40;;;;;;;;;;4980165;28;20232;-64
2022/07/08 15:04:01;;;;;;;6.23;1.47;;;;;;;;;;4979557;28;20327;-64
2022/07/08 15:06:32;;;;;;;4.43;1.10;;;;;;;;;;4979282;28;20314;-64
2022/07/08 15:08:59;;;;;;;2.83;1.03;;;;;;;;;;4978704;28;20219;-63
2022/07/08 15:11:26;;;;;;;4.30;1.03;;;;;;;;;;4969009;28;20228;-64
2022/07/08 15:13:53;;;;;;;6.13;1.57;;;;;;;;;;4980516;28;20239;-63
2022/07/08 15:16:20;;;;;;;6.87;1.10;;;;;;;;;;4977406;28;20240;-64
2022/07/08 15:18:53;;;;;;;4.57;1.10;;;;;;;;;;4978476;28;20235;-63
2022/07/08 15:21:21;;;;;;;4.10;1.20;;;;;;;;;;4978365;28;21077;-64
2022/07/08 15:23:51;;;;;;;1.97;1.00;;;;;;;;;;4979820;28;20672;-63
2022/07/08 15:26:18;;;;;;;3.57;1.20;;;;;;;;;;4977927;28;20318;-65
2022/07/08 15:28:45;;;;;;;4.73;1.00;;;;;;;;;;4962049;28;20247;-64
2022/07/08 15:31:12;;;;;;;2.00;1.13;;;;;;;;;;4962127;28;20244;-64
2022/07/08 15:33:41;;;;;;;2.00;0.97;;;;;;;;;;4979382;28;20619;-64
2022/07/08 15:36:09;;;;;;;2.50;0.90;;;;;;;;;;4978321;28;20293;-64
2022/07/08 15:38:56;;;;;;;3.37;1.00;;;;;;;;;;4972418;28;20231;-64
2022/07/08 15:41:36;;;;;;;2.53;1.00;;;;;;;;;;4994651;28;20231;-63